createdAt,value
2022-10-18T00:00:22.689Z,29.10
2022-10-18T00:03:10.675Z,46.80
2022-10-18T00:05:38.381Z,28.30
2022-10-18T00:08:05.917Z,39.80
2022-10-18T00:10:33.493Z,33.00
2022-10-18T00:13:01.276Z,35.20
2022-10-18T00:15:28.702Z,34.00
2022-10-18T00:17:56.264Z,30.10
2022-10-18T00:20:23.693Z,33.80
2022-10-18T00:22:51.369Z,36.30
2022-10-18T00:25:19.551Z,39.00
2022-10-18T00:28:01.376Z,37.50
2022-10-18T00:30:28.569Z,33.70
2022-10-18T00:32:55.954Z,35.90
2022-10-18T00:35:23.647Z,33.10
2022-10-18T00:38:05.302Z,42.30
2022-10-18T00:40:32.694Z,29.70
2022-10-18T00:42:59.863Z,33.60
2022-10-18T00:45:27.667Z,47.00
2022-10-18T00:47:59.669Z,53.20
2022-10-18T00:50:32.135Z,35.80
2022-10-18T00:53:04.368Z,42.10
2022-10-18T00:55:33.742Z,34.60
2022-10-18T00:58:02.029Z,38.30
2022-10-18T01:00:29.449Z,31.90
2022-10-18T01:02:58.835Z,34.30
2022-10-18T01:05:26.694Z,40.80
2022-10-18T01:08:15.886Z,37.00
2022-10-18T01:11:22.445Z,33.60
2022-10-18T01:14:24.111Z,34.10
2022-10-18T01:17:11.075Z,36.10
2022-10-18T01:20:16.235Z,33.80
2022-10-18T01:23:08.044Z,48.30
2022-10-18T01:25:55.985Z,43.40
2022-10-18T01:28:40.643Z,44.50
2022-10-18T01:31:35.012Z,46.50
2022-10-18T01:34:07.903Z,37.90
2022-10-18T01:36:47.575Z,43.50
2022-10-18T01:39:34.579Z,34.20
2022-10-18T01:42:07.277Z,34.30
2022-10-18T01:44:36.466Z,41.30
2022-10-18T01:47:06.472Z,44.00
2022-10-18T01:49:34.056Z,37.40
2022-10-18T01:52:01.513Z,40.10
2022-10-18T01:54:42.908Z,38.70
2022-10-18T01:57:25.707Z,43.60
2022-10-18T01:59:59.520Z,47.90
2022-10-18T02:02:53.630Z,48.10
2022-10-18T02:05:48.784Z,39.60
2022-10-18T02:08:33.512Z,33.80
2022-10-18T02:11:08.333Z,41.50
2022-10-18T02:13:41.537Z,46.20
2022-10-18T02:16:34.391Z,48.40
2022-10-18T02:19:40.642Z,53.50
2022-10-18T02:22:11.222Z,36.20
2022-10-18T02:24:43.317Z,36.20
2022-10-18T02:27:25.600Z,43.30
2022-10-18T02:29:53.851Z,42.70
2022-10-18T02:32:29.326Z,40.80
2022-10-18T02:35:04.439Z,41.40
2022-10-18T02:37:39.072Z,42.60
2022-10-18T02:40:09.472Z,35.50
2022-10-18T02:42:50.085Z,45.10
2022-10-18T02:45:17.824Z,48.00
2022-10-18T02:47:45.331Z,41.00
2022-10-18T02:50:14.156Z,36.70
2022-10-18T02:52:41.368Z,46.80
2022-10-18T02:55:23.247Z,49.40
2022-10-18T02:57:50.779Z,39.80
2022-10-18T03:00:18.607Z,38.50
2022-10-18T03:02:48.639Z,37.80
2022-10-18T03:05:16.224Z,49.60
2022-10-18T03:07:43.579Z,40.70
2022-10-18T03:10:11.093Z,39.60
2022-10-18T03:12:38.471Z,48.00
2022-10-18T03:15:06.317Z,51.50
2022-10-18T03:17:48.054Z,46.90
2022-10-18T03:20:15.610Z,43.90
2022-10-18T03:22:43.050Z,51.90
2022-10-18T03:25:10.385Z,48.00
2022-10-18T03:27:37.852Z,47.40
2022-10-18T03:30:06.012Z,49.90
2022-10-18T03:32:33.849Z,43.80
2022-10-18T03:35:01.468Z,44.40
2022-10-18T03:37:28.996Z,61.90
2022-10-18T03:39:56.504Z,40.40
2022-10-18T03:42:23.788Z,50.50
2022-10-18T03:44:51.334Z,44.00
2022-10-18T03:47:18.949Z,44.40
2022-10-18T03:49:46.360Z,45.60
2022-10-18T03:52:13.792Z,49.30
2022-10-18T03:54:41.029Z,45.20
2022-10-18T03:57:08.447Z,46.60
2022-10-18T03:59:36.365Z,42.50
2022-10-18T04:02:04.783Z,50.90
2022-10-18T04:04:32.091Z,45.70
2022-10-18T04:06:59.610Z,44.00
2022-10-18T04:09:26.810Z,48.40
2022-10-18T04:11:54.170Z,47.60
2022-10-18T04:14:21.649Z,45.50
2022-10-18T04:16:49.346Z,43.40
2022-10-18T04:19:16.852Z,50.20
2022-10-18T04:21:44.447Z,42.50
2022-10-18T04:24:11.821Z,51.90
2022-10-18T04:26:39.321Z,44.00
2022-10-18T04:29:06.648Z,49.70
2022-10-18T04:31:34.160Z,51.50
2022-10-18T04:34:02.402Z,44.40
2022-10-18T04:36:30.995Z,52.40
2022-10-18T04:38:58.446Z,53.00
2022-10-18T04:41:25.786Z,54.70
2022-10-18T04:43:53.350Z,55.10
2022-10-18T04:46:21.004Z,49.80
2022-10-18T04:48:48.576Z,58.80
2022-10-18T04:51:16.144Z,56.00
2022-10-18T04:53:43.769Z,56.10
2022-10-18T04:56:11.462Z,56.50
2022-10-18T04:58:38.720Z,57.10
2022-10-18T05:01:07.389Z,55.30
2022-10-18T05:03:35.290Z,49.70
2022-10-18T05:06:03.727Z,43.60
2022-10-18T05:08:33.219Z,43.90
2022-10-18T05:11:01.079Z,54.50
2022-10-18T05:13:29.790Z,52.60
2022-10-18T05:15:58.994Z,49.00
2022-10-18T05:18:26.925Z,53.20
2022-10-18T05:20:54.356Z,54.60
2022-10-18T05:23:21.837Z,58.70
2022-10-18T05:25:49.210Z,57.50
2022-10-18T05:28:38.174Z,63.20
2022-10-18T05:31:06.032Z,54.90
2022-10-18T05:33:47.640Z,64.20
2022-10-18T05:36:15.491Z,53.80
2022-10-18T05:38:44.832Z,46.10
2022-10-18T05:41:12.462Z,60.00
2022-10-18T05:43:40.602Z,46.00
2022-10-18T05:46:15.513Z,49.40
2022-10-18T05:48:44.513Z,49.10
2022-10-18T05:51:12.010Z,48.60
2022-10-18T05:53:39.325Z,50.20
2022-10-18T05:56:07.258Z,49.50
2022-10-18T05:58:34.774Z,50.70
2022-10-18T06:01:03.457Z,52.60
2022-10-18T06:03:31.517Z,43.10
2022-10-18T06:06:09.780Z,47.40
2022-10-18T06:08:38.368Z,46.00
2022-10-18T06:11:17.121Z,54.30
2022-10-18T06:13:47.093Z,50.30
2022-10-18T06:16:16.076Z,43.50
2022-10-18T06:18:46.952Z,46.70
2022-10-18T06:21:14.406Z,42.90
2022-10-18T06:23:41.691Z,45.10
2022-10-18T06:26:11.270Z,61.50
2022-10-18T06:28:38.759Z,57.50
2022-10-18T06:31:06.592Z,64.00
2022-10-18T06:33:36.618Z,54.90
2022-10-18T06:36:07.932Z,58.20
2022-10-18T06:38:35.832Z,49.30
2022-10-18T06:41:19.135Z,61.00
2022-10-18T06:44:06.708Z,50.70
2022-10-18T06:46:34.111Z,54.70
2022-10-18T06:49:01.495Z,55.80
2022-10-18T06:51:29.036Z,49.80
2022-10-18T06:54:17.003Z,53.60
2022-10-18T06:56:44.085Z,53.40
2022-10-18T06:59:11.891Z,56.80
2022-10-18T07:01:39.384Z,53.60
2022-10-18T07:04:06.813Z,63.10
2022-10-18T07:06:34.172Z,55.60
2022-10-18T07:09:02.786Z,55.30
2022-10-18T07:11:30.571Z,46.20
2022-10-18T07:14:03.827Z,43.80
2022-10-18T07:16:33.857Z,58.30
2022-10-18T07:19:02.132Z,50.90
2022-10-18T07:21:29.469Z,47.70
2022-10-18T07:23:57.179Z,50.50
2022-10-18T07:26:33.417Z,62.20
2022-10-18T07:29:15.110Z,59.60
2022-10-18T07:31:42.485Z,51.10
2022-10-18T07:34:24.295Z,44.90
2022-10-18T07:36:51.418Z,42.60
2022-10-18T07:39:18.587Z,48.80
2022-10-18T07:41:46.099Z,50.30
2022-10-18T07:44:13.717Z,49.70
2022-10-18T07:46:41.208Z,64.60
2022-10-18T07:49:08.662Z,48.10
2022-10-18T07:51:36.007Z,50.30
2022-10-18T07:54:03.531Z,56.20
2022-10-18T07:56:31.162Z,45.50
2022-10-18T07:58:58.816Z,50.00
2022-10-18T08:01:26.364Z,44.80
2022-10-18T08:03:54.217Z,44.20
2022-10-18T08:06:22.438Z,49.50
2022-10-18T08:08:50.154Z,45.90
2022-10-18T08:11:20.571Z,53.40
2022-10-18T08:13:48.613Z,42.30
2022-10-18T08:16:20.071Z,41.20
2022-10-18T08:18:48.048Z,48.80
2022-10-18T08:21:17.565Z,45.50
2022-10-18T08:23:45.527Z,38.70
2022-10-18T08:26:16.481Z,49.30
2022-10-18T08:28:53.577Z,44.00
2022-10-18T08:31:26.317Z,44.90
2022-10-18T08:33:56.860Z,43.80
2022-10-18T08:36:24.503Z,45.10
2022-10-18T08:38:52.092Z,43.20
2022-10-18T08:41:36.977Z,57.00
2022-10-18T08:44:13.229Z,56.00
2022-10-18T08:46:45.804Z,42.70
2022-10-18T08:50:00.385Z,44.00
2022-10-18T08:52:33.192Z,39.60
2022-10-18T08:55:02.529Z,33.40
2022-10-18T08:57:32.612Z,32.40
2022-10-18T09:00:05.861Z,42.80
2022-10-18T09:02:49.319Z,37.60
2022-10-18T09:05:31.368Z,77.90
2022-10-18T09:08:36.976Z,172.80
2022-10-18T09:11:32.228Z,135.80
2022-10-18T09:14:23.711Z,90.40
2022-10-18T09:17:16.989Z,49.60
2022-10-18T09:20:22.158Z,40.50
2022-10-18T09:23:19.641Z,36.50
2022-10-18T09:25:53.355Z,39.10
2022-10-18T09:28:39.293Z,39.30
2022-10-18T09:31:32.338Z,35.70
2022-10-18T09:34:22.679Z,38.90
2022-10-18T09:36:52.350Z,39.80
2022-10-18T09:39:30.276Z,42.00
2022-10-18T09:42:07.012Z,37.10
2022-10-18T09:45:00.109Z,39.30
2022-10-18T09:47:37.898Z,40.70
2022-10-18T09:50:54.696Z,43.60
2022-10-18T09:53:37.018Z,44.90
2022-10-18T09:56:29.952Z,39.90
2022-10-18T09:59:51.009Z,41.90
2022-10-18T10:02:21.778Z,37.70
2022-10-18T10:04:50.717Z,40.20
2022-10-18T10:07:27.716Z,44.10
2022-10-18T10:10:17.805Z,39.90
2022-10-18T10:12:45.644Z,38.70
2022-10-18T10:15:29.505Z,40.20
2022-10-18T10:18:14.383Z,34.00
2022-10-18T10:20:46.303Z,45.70
2022-10-18T10:23:21.088Z,34.30
2022-10-18T10:26:19.992Z,38.00
2022-10-18T10:28:48.408Z,33.70
2022-10-18T10:31:31.011Z,44.00
2022-10-18T10:34:21.686Z,59.60
2022-10-18T10:36:52.151Z,43.30
2022-10-18T10:39:21.794Z,45.70
2022-10-18T10:41:56.738Z,36.80
2022-10-18T10:44:28.411Z,34.60
2022-10-18T10:46:56.857Z,30.40
2022-10-18T10:49:46.052Z,41.10
2022-10-18T10:52:27.285Z,37.80
2022-10-18T10:55:34.918Z,35.00
2022-10-18T10:58:03.113Z,35.50
2022-10-18T11:00:44.087Z,46.40
2022-10-18T11:03:29.126Z,38.70
2022-10-18T11:06:00.391Z,42.50
2022-10-18T11:08:41.109Z,39.20
2022-10-18T11:11:23.295Z,63.10
2022-10-18T11:14:07.254Z,74.60
2022-10-18T11:17:06.905Z,36.60
2022-10-18T11:20:10.636Z,51.40
2022-10-18T11:23:06.773Z,30.90
2022-10-18T11:25:58.138Z,39.00
2022-10-18T11:28:35.251Z,38.90
2022-10-18T11:31:14.578Z,45.90
2022-10-18T11:34:09.699Z,32.80
2022-10-18T11:37:23.041Z,39.40
2022-10-18T11:39:54.778Z,33.60
2022-10-18T11:43:00.595Z,31.90
2022-10-18T11:46:02.464Z,40.00
2022-10-18T11:48:35.677Z,37.50
2022-10-18T11:51:06.083Z,31.60
2022-10-18T11:53:52.204Z,35.20
2022-10-18T11:56:38.274Z,30.50
2022-10-18T11:59:33.512Z,30.50
2022-10-18T12:02:41.628Z,27.70
2022-10-18T12:05:26.161Z,27.50
2022-10-18T12:08:05.159Z,23.40
2022-10-18T12:10:52.771Z,31.80
2022-10-18T12:13:51.097Z,26.30
2022-10-18T12:16:39.014Z,24.30
2022-10-18T12:19:28.159Z,26.30
2022-10-18T12:22:13.318Z,24.10
2022-10-18T12:24:41.756Z,22.80
2022-10-18T12:27:13.249Z,19.20
2022-10-18T12:29:50.194Z,16.40
2022-10-18T12:32:24.364Z,21.60
2022-10-18T12:35:06.254Z,17.00
2022-10-18T12:37:36.806Z,16.50
2022-10-18T12:40:13.445Z,20.40
2022-10-18T12:42:47.407Z,18.60
2022-10-18T12:45:46.272Z,17.00
2022-10-18T12:48:28.796Z,22.90
2022-10-18T12:51:20.770Z,15.70
2022-10-18T12:53:52.606Z,20.20
2022-10-18T12:56:44.026Z,15.80
2022-10-18T12:59:14.638Z,16.00
2022-10-18T13:01:51.329Z,16.10
2022-10-18T13:04:32.172Z,17.80
2022-10-18T13:07:22.566Z,10.70
2022-10-18T13:10:12.430Z,18.20
2022-10-18T13:13:38.633Z,19.20
2022-10-18T13:16:27.982Z,8.70
2022-10-18T13:19:08.982Z,10.50
2022-10-18T13:22:08.481Z,18.10
2022-10-18T13:25:10.438Z,9.20
2022-10-18T13:28:08.055Z,17.10
2022-10-18T13:31:56.445Z,9.50
2022-10-18T13:36:07.565Z,14.80
2022-10-18T13:39:06.095Z,12.00
2022-10-18T13:41:45.756Z,9.50
2022-10-18T13:44:37.108Z,14.30
2022-10-18T13:47:04.349Z,7.40
2022-10-18T13:49:58.527Z,10.40
2022-10-18T13:52:49.576Z,8.80
2022-10-18T13:55:41.895Z,8.20
2022-10-18T13:58:22.981Z,13.10
2022-10-18T14:01:21.687Z,16.90
2022-10-18T14:03:59.077Z,20.00
2022-10-18T14:06:43.348Z,9.80
2022-10-18T14:09:43.784Z,13.20
2022-10-18T14:12:45.666Z,9.40
2022-10-18T14:15:23.770Z,12.20
2022-10-18T14:18:18.550Z,9.20
2022-10-18T14:21:12.208Z,13.30
2022-10-18T14:23:44.384Z,12.10
2022-10-18T14:26:18.283Z,13.60
2022-10-18T14:29:01.423Z,13.90
2022-10-18T14:31:29.703Z,11.20
2022-10-18T14:33:58.974Z,19.00
2022-10-18T14:36:35.829Z,23.20
2022-10-18T14:41:41.029Z,18.10
2022-10-18T14:44:14.644Z,10.50
2022-10-18T14:46:50.113Z,16.00
2022-10-18T14:49:19.935Z,12.30
2022-10-18T14:51:51.065Z,16.70
2022-10-18T14:54:25.093Z,12.60
2022-10-18T14:56:55.967Z,12.40
2022-10-18T14:59:30.256Z,19.40
2022-10-18T15:02:23.087Z,11.50
2022-10-18T15:05:21.603Z,11.60
2022-10-18T15:07:50.969Z,18.80
2022-10-18T15:10:28.019Z,21.80
2022-10-18T15:13:10.880Z,19.90
2022-10-18T15:15:40.141Z,11.20
2022-10-18T15:18:18.877Z,16.80
2022-10-18T15:20:46.100Z,13.50
2022-10-18T15:23:30.850Z,16.50
2022-10-18T15:26:14.832Z,15.30
2022-10-18T15:29:01.466Z,20.30
2022-10-18T15:31:34.978Z,16.30
2022-10-18T15:34:25.990Z,14.00
2022-10-18T15:36:56.639Z,14.50
2022-10-18T15:39:30.773Z,15.90
2022-10-18T15:42:01.103Z,18.60
2022-10-18T15:44:46.304Z,23.00
2022-10-18T15:47:15.654Z,23.30
2022-10-18T15:49:45.762Z,18.30
2022-10-18T15:52:39.193Z,18.80
2022-10-18T15:55:29.733Z,18.80
2022-10-18T15:58:12.072Z,18.80
2022-10-18T16:00:39.666Z,19.80
2022-10-18T16:03:08.718Z,23.60
2022-10-18T16:05:37.288Z,18.00
2022-10-18T16:08:04.753Z,21.30
2022-10-18T16:10:31.948Z,17.00
2022-10-18T16:12:59.342Z,27.20
2022-10-18T16:15:26.546Z,23.30
2022-10-18T16:17:53.872Z,21.80
2022-10-18T16:20:24.383Z,20.50
2022-10-18T16:22:52.083Z,23.30
2022-10-18T16:25:19.488Z,23.60
2022-10-18T16:27:46.910Z,25.40
2022-10-18T16:30:18.197Z,23.10
2022-10-18T16:32:46.088Z,23.10
2022-10-18T16:35:28.299Z,21.70
2022-10-18T16:37:56.187Z,18.20
2022-10-18T16:40:41.102Z,17.40
2022-10-18T16:43:08.870Z,19.60
2022-10-18T16:45:36.392Z,22.30
2022-10-18T16:48:04.409Z,24.00
2022-10-18T16:50:35.298Z,18.30
2022-10-18T16:53:02.933Z,27.10
2022-10-18T16:55:30.229Z,19.70
2022-10-18T16:57:57.722Z,22.10
2022-10-18T17:00:24.909Z,17.90
2022-10-18T17:02:51.980Z,21.70
2022-10-18T17:05:19.672Z,20.90
2022-10-18T17:07:47.743Z,14.60
2022-10-18T17:10:18.879Z,19.90
2022-10-18T17:12:46.137Z,18.10
2022-10-18T17:15:13.308Z,19.70
2022-10-18T17:17:40.664Z,21.60
2022-10-18T17:20:08.706Z,21.10
2022-10-18T17:22:36.287Z,24.10
2022-10-18T17:25:04.244Z,22.70
2022-10-18T17:27:32.316Z,19.10
2022-10-18T17:30:14.752Z,16.30
2022-10-18T17:32:44.131Z,27.80
2022-10-18T17:35:12.385Z,22.90
2022-10-18T17:37:44.047Z,26.20
2022-10-18T17:40:13.649Z,25.60
2022-10-18T17:42:40.927Z,26.40
2022-10-18T17:45:09.123Z,21.50
2022-10-18T17:47:50.775Z,27.60
2022-10-18T17:50:18.447Z,21.70
2022-10-18T17:52:46.910Z,23.60
2022-10-18T17:55:15.184Z,27.10
2022-10-18T17:57:43.300Z,24.30
2022-10-18T18:00:13.211Z,25.80
2022-10-18T18:02:42.212Z,26.20
2022-10-18T18:05:10.125Z,26.90
2022-10-18T18:07:37.434Z,22.70
2022-10-18T18:10:05.201Z,29.10
2022-10-18T18:12:47.395Z,31.10
2022-10-18T18:15:14.650Z,33.10
2022-10-18T18:17:58.100Z,21.90
2022-10-18T18:20:26.170Z,28.20
2022-10-18T18:22:53.926Z,25.60
2022-10-18T18:25:21.341Z,30.90
2022-10-18T18:27:48.456Z,27.20
2022-10-18T18:30:17.584Z,22.90
2022-10-18T18:33:05.196Z,38.90
2022-10-18T18:35:32.561Z,33.10
2022-10-18T18:37:59.948Z,25.00
2022-10-18T18:40:27.454Z,30.50
2022-10-18T18:43:12.072Z,38.10
2022-10-18T18:45:50.079Z,35.60
2022-10-18T18:48:19.767Z,34.60
2022-10-18T18:50:51.604Z,24.20
2022-10-18T18:53:19.256Z,26.10
2022-10-18T18:55:48.061Z,24.80
2022-10-18T18:58:15.452Z,30.60
2022-10-18T19:00:44.511Z,25.60
2022-10-18T19:03:12.365Z,31.40
2022-10-18T19:05:39.505Z,20.70
2022-10-18T19:08:06.492Z,37.60
2022-10-18T19:10:33.485Z,26.50
2022-10-18T19:13:00.867Z,32.80
2022-10-18T19:15:30.010Z,30.60
2022-10-18T19:17:59.113Z,26.50
2022-10-18T19:20:26.324Z,27.60
2022-10-18T19:22:53.551Z,35.40
2022-10-18T19:25:22.251Z,30.70
2022-10-18T19:27:52.003Z,35.10
2022-10-18T19:30:19.282Z,27.80
2022-10-18T19:32:46.479Z,32.30
2022-10-18T19:35:28.011Z,31.40
2022-10-18T19:37:55.162Z,27.10
2022-10-18T19:40:22.573Z,30.50
2022-10-18T19:42:49.634Z,28.30
2022-10-18T19:45:16.774Z,31.70
2022-10-18T19:47:43.989Z,35.40
2022-10-18T19:50:11.146Z,29.40
2022-10-18T19:52:38.088Z,30.80
2022-10-18T19:55:05.725Z,29.10
2022-10-18T19:57:32.928Z,23.30
2022-10-18T20:00:00.944Z,22.00
2022-10-18T20:02:38.677Z,20.40
2022-10-18T20:05:06.280Z,23.10
2022-10-18T20:07:33.801Z,22.00
2022-10-18T20:10:01.054Z,19.00
2022-10-18T20:12:28.728Z,24.70
2022-10-18T20:14:56.170Z,19.20
2022-10-18T20:17:23.536Z,16.90
2022-10-18T20:19:50.931Z,20.60
2022-10-18T20:22:18.274Z,26.90
2022-10-18T20:24:46.163Z,26.10
2022-10-18T20:27:13.937Z,16.70
2022-10-18T20:29:41.302Z,25.80
2022-10-18T20:32:09.052Z,17.80
2022-10-18T20:34:36.602Z,19.10
2022-10-18T20:37:03.799Z,25.70
2022-10-18T20:39:31.343Z,16.70
2022-10-18T20:41:59.016Z,24.70
2022-10-18T20:44:26.738Z,19.30
2022-10-18T20:46:54.162Z,19.10
2022-10-18T20:49:22.098Z,28.70
2022-10-18T20:51:49.576Z,32.20
2022-10-18T20:54:16.603Z,30.80
2022-10-18T20:56:43.647Z,30.90
2022-10-18T20:59:11.147Z,20.80
2022-10-18T21:01:39.408Z,32.50
2022-10-18T21:04:09.466Z,37.50
2022-10-18T21:06:42.572Z,26.90
2022-10-18T21:09:16.566Z,21.70
2022-10-18T21:11:46.273Z,22.70
2022-10-18T21:14:18.051Z,26.40
2022-10-18T21:16:46.682Z,19.50
2022-10-18T21:19:17.226Z,21.70
2022-10-18T21:21:47.368Z,25.60
2022-10-18T21:24:14.917Z,34.90
2022-10-18T21:26:43.086Z,22.10
2022-10-18T21:29:12.253Z,26.10
2022-10-18T21:31:42.096Z,33.10
2022-10-18T21:34:15.401Z,20.20
2022-10-18T21:36:44.644Z,29.30
2022-10-18T21:39:15.728Z,26.00
2022-10-18T21:41:44.158Z,21.00
2022-10-18T21:44:12.354Z,27.00
2022-10-18T21:46:42.573Z,24.70
2022-10-18T21:49:10.905Z,29.20
2022-10-18T21:51:38.608Z,32.70
2022-10-18T21:54:11.180Z,34.20
2022-10-18T21:59:20.111Z,30.50
2022-10-18T22:01:47.549Z,27.30
2022-10-18T22:04:27.146Z,28.20
2022-10-18T22:06:54.564Z,26.30
2022-10-18T22:09:22.101Z,28.10
2022-10-18T22:11:52.032Z,24.80
2022-10-18T22:14:19.909Z,30.00
2022-10-18T22:16:47.152Z,21.00
2022-10-18T22:19:14.991Z,28.20
2022-10-18T22:21:42.454Z,28.60
2022-10-18T22:24:09.895Z,28.10
2022-10-18T22:26:51.658Z,16.20
2022-10-18T22:29:33.449Z,30.30
2022-10-18T22:32:01.328Z,29.80
2022-10-18T22:34:28.619Z,22.30
2022-10-18T22:37:10.273Z,23.30
2022-10-18T22:39:37.782Z,21.80
2022-10-18T22:42:05.691Z,28.30
2022-10-18T22:44:35.794Z,22.00
2022-10-18T22:47:03.170Z,21.60
2022-10-18T22:49:30.682Z,19.80
2022-10-18T22:51:57.999Z,22.30
2022-10-18T22:54:25.331Z,21.50
2022-10-18T22:56:52.810Z,21.30
2022-10-18T22:59:20.460Z,38.20
2022-10-18T23:01:47.687Z,19.80
2022-10-18T23:04:15.198Z,26.10
2022-10-18T23:06:42.803Z,26.90
2022-10-18T23:09:11.044Z,27.90
2022-10-18T23:11:38.489Z,23.20
2022-10-18T23:14:06.756Z,33.50
2022-10-18T23:16:34.263Z,30.00
2022-10-18T23:19:16.594Z,29.10
2022-10-18T23:21:58.217Z,25.10
2022-10-18T23:24:25.844Z,27.30
2022-10-18T23:26:53.351Z,20.20
2022-10-18T23:29:20.804Z,16.70
2022-10-18T23:31:48.245Z,48.50
2022-10-18T23:34:15.873Z,22.80
2022-10-18T23:39:11.861Z,23.90
2022-10-18T23:41:39.303Z,27.20
2022-10-18T23:44:08.493Z,24.60
2022-10-18T23:46:36.104Z,20.10
2022-10-18T23:49:03.462Z,23.90
2022-10-18T23:51:30.984Z,29.50
2022-10-18T23:53:58.508Z,19.10
2022-10-18T23:56:25.930Z,20.20
2022-10-18T23:58:53.407Z,32.20
